Time;durP1;ratioP1;P1;durP2;ratioP2;P2;SDS_P1;SDS_P2;PMS_P1;PMS_P2;Temp;Humidity;BMP_temperature;BMP_pressure;BME280_temperature;BME280_humidity;BME280_pressure;Samples;Min_cycle;Max_cycle;Signal;HPM_P1;HPM_P2
2024/03/08 00:00:42;;;;;;;22.10;15.27;;;3.50;77.00;;;;;;5097762;28;20529;-69
2024/03/08 00:03:10;;;;;;;22.60;15.17;;;3.60;76.80;;;;;;5106075;28;20207;-69
2024/03/08 00:05:38;;;;;;;23.00;16.03;;;3.50;76.40;;;;;;5097032;28;20453;-70
2024/03/08 00:08:04;;;;;;;23.77;16.53;;;3.60;76.50;;;;;;5113199;28;20810;-70
2024/03/08 00:10:30;;;;;;;23.57;15.80;;;3.50;76.70;;;;;;5107312;28;20880;-69
2024/03/08 00:12:57;;;;;;;22.93;14.80;;;3.40;77.00;;;;;;5103259;28;20398;-70
2024/03/08 00:15:23;;;;;;;26.60;15.33;;;3.40;77.50;;;;;;5106555;28;20241;-70
2024/03/08 00:17:48;;;;;;;23.07;16.27;;;3.40;77.80;;;;;;5113727;28;20409;-70
2024/03/08 00:20:17;;;;;;;18.30;13.37;;;3.30;78.00;;;;;;5097297;28;20191;-70
2024/03/08 00:22:43;;;;;;;21.97;14.97;;;3.30;78.20;;;;;;5110990;28;20219;-67
2024/03/08 00:25:09;;;;;;;22.03;16.33;;;3.20;78.40;;;;;;5113381;28;20441;-71
2024/03/08 00:27:35;;;;;;;21.20;15.03;;;3.20;78.60;;;;;;5112404;28;21561;-70
2024/03/08 00:30:01;;;;;;;22.50;16.20;;;3.10;78.80;;;;;;5105881;28;20506;-69
2024/03/08 00:32:27;;;;;;;26.40;16.60;;;3.20;79.00;;;;;;5101516;28;20196;-70
2024/03/08 00:34:54;;;;;;;21.20;14.90;;;3.20;79.00;;;;;;5095316;28;20425;-69
2024/03/08 00:37:23;;;;;;;25.47;15.97;;;3.10;78.70;;;;;;5113464;28;20223;-67
2024/03/08 00:39:49;;;;;;;23.33;15.93;;;3.10;79.00;;;;;;5101461;28;20421;-69
2024/03/08 00:42:16;;;;;;;23.10;16.23;;;3.10;79.30;;;;;;5101976;28;20948;-68
2024/03/08 00:44:42;;;;;;;24.80;15.40;;;3.00;79.50;;;;;;5103925;28;20445;-68
2024/03/08 00:47:07;;;;;;;23.90;15.33;;;3.00;79.80;;;;;;5108584;28;20426;-68
2024/03/08 00:49:33;;;;;;;24.93;17.60;;;3.00;79.90;;;;;;5096088;28;20750;-69
2024/03/08 00:51:59;;;;;;;23.90;17.27;;;3.00;80.20;;;;;;5100592;28;20183;-69
2024/03/08 00:54:24;;;;;;;23.57;16.30;;;2.90;80.10;;;;;;5100934;28;20463;-67
2024/03/08 00:56:50;;;;;;;26.97;15.30;;;2.90;80.20;;;;;;5107840;28;20396;-69
2024/03/08 00:59:16;;;;;;;22.20;15.60;;;2.90;80.40;;;;;;5109347;28;20579;-70
2024/03/08 01:01:41;;;;;;;25.03;16.27;;;2.90;80.70;;;;;;5107435;28;20208;-68
2024/03/08 01:04:07;;;;;;;23.23;16.50;;;2.90;80.90;;;;;;5102293;28;20198;-67
2024/03/08 01:06:34;;;;;;;28.13;17.80;;;2.80;80.70;;;;;;5105758;28;20204;-69
2024/03/08 01:08:59;;;;;;;20.83;15.97;;;2.90;80.90;;;;;;5103134;28;20433;-68
2024/03/08 01:11:25;;;;;;;24.13;16.50;;;2.90;81.00;;;;;;5104252;28;20409;-68
2024/03/08 01:13:51;;;;;;;21.73;16.03;;;2.80;81.20;;;;;;5101349;28;20199;-70
2024/03/08 01:16:17;;;;;;;30.43;17.93;;;2.70;81.50;;;;;;5102879;28;20234;-67
2024/03/08 01:18:43;;;;;;;30.53;17.13;;;2.70;81.90;;;;;;5096308;28;20203;-69
2024/03/08 01:21:09;;;;;;;26.27;18.63;;;2.70;82.10;;;;;;5108299;28;20203;-70
2024/03/08 01:23:34;;;;;;;23.07;16.10;;;2.80;82.20;;;;;;5103483;28;20410;-71
2024/03/08 01:26:02;;;;;;;25.93;17.83;;;2.80;81.80;;;;;;5105674;28;20495;-69
2024/03/08 01:28:28;;;;;;;29.33;17.80;;;2.80;82.00;;;;;;5103362;28;20180;-70
2024/03/08 01:30:56;;;;;;;25.70;17.77;;;2.90;81.90;;;;;;5098594;28;20425;-70
2024/03/08 01:33:23;;;;;;;24.63;16.10;;;3.00;81.80;;;;;;5104143;28;20445;-68
2024/03/08 01:35:49;;;;;;;22.90;15.97;;;2.90;81.40;;;;;;5102182;28;20591;-70
2024/03/08 01:38:15;;;;;;;31.37;18.63;;;2.90;81.90;;;;;;5092446;28;20452;-71
2024/03/08 01:40:41;;;;;;;25.30;16.33;;;2.80;82.50;;;;;;5113790;28;20227;-69
2024/03/08 01:43:22;;;;;;;25.67;17.60;;;2.80;82.40;;;;;;5109043;28;20533;-69
2024/03/08 01:45:49;;;;;;;23.90;17.80;;;2.70;82.60;;;;;;5111025;28;20211;-70
2024/03/08 01:48:17;;;;;;;23.87;16.70;;;2.70;83.00;;;;;;5110436;28;20418;-68
2024/03/08 01:50:43;;;;;;;24.90;16.80;;;2.70;83.50;;;;;;5098393;28;20417;-72
2024/03/08 01:53:10;;;;;;;29.93;19.30;;;2.70;83.70;;;;;;5114801;28;20470;-68
2024/03/08 01:55:36;;;;;;;24.03;17.27;;;2.60;83.90;;;;;;5096942;28;20451;-68
2024/03/08 01:58:04;;;;;;;33.50;18.30;;;2.50;84.30;;;;;;5113700;28;20724;-70
2024/03/08 02:00:31;;;;;;;23.83;16.43;;;2.50;84.90;;;;;;5110625;28;20772;-69
2024/03/08 02:02:57;;;;;;;31.43;19.60;;;2.40;85.20;;;;;;5114859;28;20433;-69
2024/03/08 02:05:23;;;;;;;26.07;18.10;;;2.50;85.80;;;;;;5097100;28;20418;-70
2024/03/08 02:07:49;;;;;;;31.20;18.50;;;2.40;86.00;;;;;;5108212;28;20489;-70
2024/03/08 02:10:15;;;;;;;27.00;18.47;;;2.40;86.50;;;;;;5110268;28;20172;-69
2024/03/08 02:12:41;;;;;;;26.20;15.93;;;2.40;86.80;;;;;;5108365;28;20919;-68
2024/03/08 02:15:07;;;;;;;24.20;16.20;;;2.40;87.00;;;;;;5109841;28;20405;-69
2024/03/08 02:17:33;;;;;;;25.07;16.87;;;2.40;87.40;;;;;;5118290;28;20758;-69
2024/03/08 02:20:04;;;;;;;29.10;17.13;;;2.30;87.70;;;;;;5113526;28;20440;-69
2024/03/08 02:22:31;;;;;;;24.67;16.33;;;2.30;89.00;;;;;;5114670;28;20614;-70
2024/03/08 02:25:01;;;;;;;36.00;19.70;;;2.30;88.80;;;;;;5118562;28;20406;-70
2024/03/08 02:27:27;;;;;;;29.50;18.43;;;2.30;89.40;;;;;;5106152;28;20422;-69
2024/03/08 02:29:55;;;;;;;26.23;17.50;;;2.40;89.20;;;;;;5110780;28;20405;-68
2024/03/08 02:32:24;;;;;;;30.87;17.97;;;2.30;89.50;;;;;;5108774;28;20434;-69
2024/03/08 02:34:50;;;;;;;28.60;19.33;;;2.30;89.90;;;;;;5109677;28;20426;-69
2024/03/08 02:37:17;;;;;;;25.47;17.90;;;2.30;90.10;;;;;;5107863;28;20776;-70
2024/03/08 02:39:43;;;;;;;27.23;18.60;;;2.30;90.30;;;;;;5110974;28;20501;-68
2024/03/08 02:42:08;;;;;;;26.03;18.00;;;2.30;90.40;;;;;;5117308;28;20804;-68
2024/03/08 02:44:34;;;;;;;27.33;18.13;;;2.40;90.50;;;;;;5117349;28;20503;-69
2024/03/08 02:47:00;;;;;;;25.37;16.40;;;2.20;90.50;;;;;;5113619;28;20663;-69
2024/03/08 02:49:28;;;;;;;26.10;17.70;;;2.20;90.80;;;;;;5115338;28;20210;-69
2024/03/08 02:51:54;;;;;;;26.63;18.90;;;2.20;91.00;;;;;;5117120;28;20417;-69
2024/03/08 02:54:21;;;;;;;30.77;18.80;;;2.20;91.80;;;;;;5117167;28;20421;-68
2024/03/08 02:56:47;;;;;;;27.60;17.67;;;2.30;91.20;;;;;;5117284;28;20716;-70
2024/03/08 02:59:12;;;;;;;29.40;18.53;;;2.30;91.00;;;;;;5117217;28;20187;-69
2024/03/08 03:01:39;;;;;;;24.47;16.60;;;2.20;91.30;;;;;;5116661;28;20579;-68
2024/03/08 03:04:05;;;;;;;24.90;16.03;;;2.10;91.50;;;;;;5116424;28;20542;-68
2024/03/08 03:06:31;;;;;;;30.07;17.93;;;2.10;91.80;;;;;;5116960;28;20480;-70
2024/03/08 03:08:57;;;;;;;29.80;16.13;;;2.10;92.00;;;;;;5116854;28;20183;-68
2024/03/08 03:11:23;;;;;;;26.47;16.17;;;2.00;92.20;;;;;;5117018;28;20410;-68
2024/03/08 03:13:49;;;;;;;25.63;16.83;;;2.00;92.50;;;;;;5118504;28;20418;-72
2024/03/08 03:16:19;;;;;;;29.43;19.73;;;2.00;92.80;;;;;;5120219;28;20637;-70
2024/03/08 03:18:45;;;;;;;24.30;15.23;;;1.90;92.90;;;;;;5107934;28;20195;-69
2024/03/08 03:21:12;;;;;;;23.17;17.50;;;1.90;93.10;;;;;;5116135;28;20574;-68
2024/03/08 03:23:42;;;;;;;25.43;17.03;;;1.90;93.50;;;;;;5116990;28;20425;-69
2024/03/08 03:26:12;;;;;;;30.67;19.33;;;1.90;93.80;;;;;;5117114;28;20502;-68
2024/03/08 03:28:39;;;;;;;23.77;16.10;;;1.90;93.70;;;;;;5116515;28;20405;-68
2024/03/08 03:31:06;;;;;;;28.80;18.00;;;1.90;93.80;;;;;;5116872;28;20845;-69
2024/03/08 03:33:34;;;;;;;30.13;19.00;;;2.00;93.90;;;;;;5112430;28;20869;-70
2024/03/08 03:36:00;;;;;;;25.70;17.57;;;2.00;93.80;;;;;;5116394;28;20441;-68
2024/03/08 03:38:27;;;;;;;29.30;17.57;;;2.00;93.70;;;;;;5113729;28;20410;-68
2024/03/08 03:40:57;;;;;;;26.90;16.57;;;2.20;93.70;;;;;;5108226;28;20516;-69
2024/03/08 03:43:25;;;;;;;27.20;16.93;;;2.10;93.60;;;;;;5109257;28;20414;-69
2024/03/08 03:45:51;;;;;;;30.50;18.20;;;2.10;93.70;;;;;;5101253;28;20469;-70
2024/03/08 03:48:17;;;;;;;25.17;16.37;;;2.10;93.70;;;;;;5098031;28;20505;-68
2024/03/08 03:50:44;;;;;;;28.70;18.93;;;2.00;93.80;;;;;;5113751;28;20470;-69
2024/03/08 03:53:09;;;;;;;26.40;17.63;;;2.00;94.00;;;;;;5098630;28;20287;-68
2024/03/08 03:55:38;;;;;;;28.17;18.40;;;2.00;94.20;;;;;;5091970;28;20429;-69
2024/03/08 03:58:04;;;;;;;29.33;17.87;;;2.00;94.20;;;;;;5104394;28;20471;-70
2024/03/08 04:00:29;;;;;;;25.53;17.50;;;2.10;94.20;;;;;;5104387;28;20449;-69
2024/03/08 04:02:58;;;;;;;28.67;18.43;;;2.10;94.20;;;;;;5096199;28;20238;-69
2024/03/08 04:05:24;;;;;;;28.10;17.70;;;2.10;94.10;;;;;;5102291;28;20204;-69
2024/03/08 04:07:49;;;;;;;27.27;18.57;;;2.10;94.00;;;;;;5095302;28;20524;-69
2024/03/08 04:10:15;;;;;;;28.73;18.07;;;2.10;94.00;;;;;;5108479;28;20184;-68
2024/03/08 04:12:41;;;;;;;30.60;18.40;;;2.10;94.00;;;;;;5094483;28;20196;-68
2024/03/08 04:15:07;;;;;;;27.47;16.83;;;2.10;93.90;;;;;;5098096;28;20521;-68
2024/03/08 04:17:37;;;;;;;27.10;18.10;;;2.10;93.90;;;;;;5106544;28;20210;-68
2024/03/08 04:20:09;;;;;;;24.23;17.00;;;2.10;94.00;;;;;;5103033;28;20524;-68
2024/03/08 04:22:36;;;;;;;26.93;17.30;;;2.10;94.30;;;;;;5097017;28;20679;-67
2024/03/08 04:25:03;;;;;;;25.03;17.87;;;2.10;94.50;;;;;;5111144;28;20410;-67
2024/03/08 04:27:28;;;;;;;25.27;16.10;;;2.00;94.60;;;;;;5109097;28;20478;-70
2024/03/08 04:29:54;;;;;;;27.87;18.90;;;1.90;94.80;;;;;;5098570;28;20426;-68
2024/03/08 04:32:20;;;;;;;28.23;18.40;;;1.90;95.00;;;;;;5095140;28;20188;-67
2024/03/08 04:34:45;;;;;;;27.63;18.50;;;1.90;95.30;;;;;;5110128;28;20674;-69
2024/03/08 04:37:13;;;;;;;29.30;18.07;;;1.90;95.40;;;;;;5107357;28;20212;-68
2024/03/08 04:39:39;;;;;;;26.10;16.80;;;1.90;95.50;;;;;;5105857;28;20176;-68
2024/03/08 04:42:09;;;;;;;24.63;17.50;;;1.90;95.50;;;;;;5111778;28;20532;-68
2024/03/08 04:44:37;;;;;;;23.70;15.70;;;1.90;95.70;;;;;;5110817;28;20188;-67
2024/03/08 04:47:05;;;;;;;26.20;16.80;;;1.90;96.00;;;;;;5104650;28;20449;-68
2024/03/08 04:49:32;;;;;;;24.73;16.83;;;1.90;95.80;;;;;;5107299;28;20460;-68
2024/03/08 04:51:57;;;;;;;24.23;15.57;;;1.90;95.90;;;;;;5101361;28;20517;-69
2024/03/08 04:54:23;;;;;;;28.67;20.03;;;1.80;96.10;;;;;;5110504;28;20496;-68
2024/03/08 04:56:49;;;;;;;24.63;17.40;;;1.80;96.30;;;;;;5103321;28;20464;-68
2024/03/08 04:59:14;;;;;;;26.07;16.50;;;1.80;96.30;;;;;;5103899;28;20448;-68
2024/03/08 05:01:40;;;;;;;30.20;17.40;;;1.80;96.50;;;;;;5107542;28;20292;-68
2024/03/08 05:04:06;;;;;;;22.83;16.33;;;1.80;96.70;;;;;;5106451;28;20195;-69
2024/03/08 05:06:31;;;;;;;26.03;16.77;;;1.80;96.80;;;;;;5114723;28;20285;-67
2024/03/08 05:08:57;;;;;;;28.57;17.33;;;1.80;96.70;;;;;;5107573;28;20175;-69
2024/03/08 05:11:22;;;;;;;33.27;18.60;;;1.80;96.80;;;;;;5106411;28;20187;-68
2024/03/08 05:13:48;;;;;;;30.37;16.50;;;1.80;96.80;;;;;;5115136;28;20187;-69
2024/03/08 05:16:15;;;;;;;30.60;18.80;;;1.80;97.00;;;;;;5113975;28;20199;-69
2024/03/08 05:18:42;;;;;;;25.63;16.90;;;1.80;97.10;;;;;;5108550;28;20200;-70
2024/03/08 05:21:09;;;;;;;26.20;17.80;;;1.90;97.00;;;;;;5102540;28;20471;-74
2024/03/08 05:23:35;;;;;;;28.40;18.20;;;1.90;97.20;;;;;;5109005;28;20456;-72
2024/03/08 05:26:00;;;;;;;29.53;18.43;;;1.80;97.30;;;;;;5118596;28;20441;-70
2024/03/08 05:28:26;;;;;;;28.23;17.00;;;1.80;97.30;;;;;;5117001;28;20366;-70
2024/03/08 05:30:52;;;;;;;28.70;18.50;;;1.80;97.30;;;;;;5120206;27;20402;-70
2024/03/08 05:33:19;;;;;;;23.53;15.20;;;1.80;97.50;;;;;;5111367;28;20347;-69
2024/03/08 05:35:45;;;;;;;29.80;16.80;;;1.70;97.70;;;;;;5097407;28;20220;-68
2024/03/08 05:38:12;;;;;;;27.70;16.33;;;1.70;98.30;;;;;;5107889;28;20480;-70
2024/03/08 05:40:38;;;;;;;25.83;16.63;;;1.60;98.60;;;;;;5116098;28;20489;-73
2024/03/08 05:43:04;;;;;;;33.70;19.70;;;1.60;98.90;;;;;;5120640;28;20478;-70
2024/03/08 05:45:29;;;;;;;34.17;19.93;;;1.60;99.30;;;;;;5121230;28;20180;-73
2024/03/08 05:47:55;;;;;;;31.33;19.77;;;1.60;99.80;;;;;;5119639;28;20179;-70
2024/03/08 05:50:20;;;;;;;28.97;19.37;;;1.60;99.90;;;;;;5113872;28;20199;-68
2024/03/08 05:52:47;;;;;;;29.77;19.60;;;1.60;99.90;;;;;;5117191;28;20492;-68
2024/03/08 05:55:14;;;;;;;31.70;17.77;;;1.60;99.90;;;;;;5117608;28;20192;-71
2024/03/08 05:57:40;;;;;;;28.90;18.33;;;1.70;99.90;;;;;;5111652;28;20502;-71
2024/03/08 06:00:08;;;;;;;25.43;17.30;;;1.60;99.90;;;;;;5121711;28;20754;-70
2024/03/08 06:02:40;;;;;;;28.70;18.83;;;1.60;99.90;;;;;;5122031;28;20456;-70
2024/03/08 06:05:11;;;;;;;31.73;18.67;;;1.60;99.90;;;;;;5121547;28;20404;-71
2024/03/08 06:07:40;;;;;;;30.77;19.03;;;1.60;99.90;;;;;;5117739;28;20448;-69
2024/03/08 06:10:10;;;;;;;28.17;19.00;;;1.70;99.90;;;;;;5120324;28;20405;-71
2024/03/08 06:12:40;;;;;;;27.40;16.87;;;1.80;99.90;;;;;;5115245;28;20463;-69
2024/03/08 06:15:06;;;;;;;27.13;18.00;;;1.70;99.90;;;;;;5121074;28;20400;-71
2024/03/08 06:17:32;;;;;;;31.10;18.93;;;1.70;99.90;;;;;;5121838;28;20429;-72
2024/03/08 06:19:57;;;;;;;30.13;18.00;;;1.80;99.90;;;;;;5116400;28;20448;-72
2024/03/08 06:22:23;;;;;;;31.37;18.67;;;1.90;99.90;;;;;;5115038;28;20216;-69
2024/03/08 06:24:49;;;;;;;30.10;19.30;;;1.90;99.90;;;;;;5101487;28;20254;-72
2024/03/08 06:27:14;;;;;;;36.47;20.87;;;1.90;99.90;;;;;;5107335;28;20453;-74
2024/03/08 06:29:40;;;;;;;29.07;18.67;;;1.90;99.90;;;;;;5121769;28;20233;-72
2024/03/08 06:32:06;;;;;;;33.37;19.37;;;2.10;99.90;;;;;;5123037;28;20436;-74
2024/03/08 06:34:35;;;;;;;31.00;20.67;;;2.10;99.90;;;;;;5120710;28;20267;-71
2024/03/08 06:37:01;;;;;;;29.13;19.17;;;2.10;99.90;;;;;;5122501;28;20243;-70
2024/03/08 06:39:30;;;;;;;34.17;20.70;;;2.10;99.90;;;;;;5123791;28;20421;-70
2024/03/08 06:41:57;;;;;;;29.53;19.70;;;2.30;99.90;;;;;;5114178;28;20474;-74
2024/03/08 06:44:22;;;;;;;30.33;19.70;;;2.30;99.90;;;;;;5106322;28;20465;-71
2024/03/08 06:46:48;;;;;;;28.33;18.53;;;2.30;99.90;;;;;;5100540;28;20201;-70
2024/03/08 06:49:15;;;;;;;29.27;20.07;;;2.40;99.80;;;;;;5104021;28;20195;-72
2024/03/08 06:51:41;;;;;;;29.10;18.50;;;2.40;99.80;;;;;;5109069;28;20212;-74
2024/03/08 06:54:08;;;;;;;33.40;19.77;;;2.40;99.80;;;;;;5097613;28;20504;-69
2024/03/08 06:56:35;;;;;;;28.47;19.20;;;2.50;99.90;;;;;;5116392;28;20438;-72
2024/03/08 06:59:02;;;;;;;30.47;19.30;;;2.50;99.90;;;;;;5116603;28;20489;-70
2024/03/08 07:01:31;;;;;;;28.30;18.40;;;2.60;99.70;;;;;;5099846;28;20534;-71
2024/03/08 07:03:57;;;;;;;33.30;19.63;;;2.60;99.60;;;;;;5112973;28;20913;-73
2024/03/08 07:06:23;;;;;;;32.97;19.60;;;2.60;99.50;;;;;;5093261;28;20746;-70
2024/03/08 07:08:49;;;;;;;29.77;19.70;;;2.70;99.30;;;;;;5102789;28;20468;-70
2024/03/08 07:11:18;;;;;;;30.67;19.47;;;2.80;99.00;;;;;;5107809;28;20195;-72
2024/03/08 07:13:45;;;;;;;35.13;21.17;;;2.80;98.80;;;;;;5108839;28;20218;-72
2024/03/08 07:16:11;;;;;;;26.40;17.97;;;2.90;98.70;;;;;;5116827;28;20433;-71
2024/03/08 07:18:39;;;;;;;29.10;18.77;;;2.90;98.50;;;;;;5112900;28;20486;-70
2024/03/08 07:21:05;;;;;;;29.43;19.40;;;3.00;98.20;;;;;;5118402;28;20476;-72
2024/03/08 07:24:21;;;;;;;29.73;19.10;;;3.10;97.90;;;;;;5112561;28;20425;-72
2024/03/08 07:26:23;;;;;;;33.90;20.47;;;3.20;97.80;;;;;;5102643;28;20442;-74
2024/03/08 07:28:48;;;;;;;33.07;19.03;;;3.20;97.50;;;;;;5097794;28;20415;-72
2024/03/08 07:31:26;;;;;;;34.37;20.03;;;3.30;97.30;;;;;;5102754;28;20204;-71
2024/03/08 07:33:53;;;;;;;29.60;19.83;;;3.40;96.80;;;;;;5105592;28;20539;-73
2024/03/08 07:36:19;;;;;;;29.90;18.10;;;3.50;96.60;;;;;;5103801;28;20879;-73
2024/03/08 07:38:47;;;;;;;31.63;21.80;;;3.50;96.50;;;;;;5115550;28;20506;-72
2024/03/08 07:41:14;;;;;;;29.20;19.57;;;3.60;96.20;;;;;;5111818;28;20475;-72
2024/03/08 07:43:40;;;;;;;29.17;19.50;;;3.60;95.80;;;;;;5114644;28;20418;-73
2024/03/08 07:46:05;;;;;;;29.93;20.57;;;3.70;95.60;;;;;;5112690;28;20488;-72
2024/03/08 07:48:31;;;;;;;32.80;19.20;;;3.80;95.30;;;;;;5102498;28;20193;-72
2024/03/08 07:50:57;;;;;;;30.97;18.70;;;3.90;95.00;;;;;;5110727;28;20519;-71
2024/03/08 07:53:26;;;;;;;35.57;19.97;;;3.90;94.80;;;;;;5111156;28;20187;-70
2024/03/08 07:55:52;;;;;;;33.60;20.63;;;4.10;94.50;;;;;;5108622;28;20469;-73
2024/03/08 07:58:18;;;;;;;30.87;20.23;;;4.10;94.20;;;;;;5112182;28;20514;-74
2024/03/08 08:00:43;;;;;;;32.00;19.47;;;4.20;93.80;;;;;;5108536;28;20536;-73
2024/03/08 08:03:09;;;;;;;31.20;20.70;;;4.30;93.60;;;;;;5113798;28;20204;-73
2024/03/08 08:05:35;;;;;;;26.87;17.13;;;4.30;93.40;;;;;;5089909;28;20193;-71
2024/03/08 08:08:06;;;;;;;31.20;20.60;;;4.40;93.30;;;;;;5117175;28;20224;-71
2024/03/08 08:10:34;;;;;;;31.30;19.20;;;4.40;93.00;;;;;;5117342;28;20414;-74
2024/03/08 08:13:00;;;;;;;25.27;17.67;;;4.60;92.60;;;;;;5106722;28;20702;-70
2024/03/08 08:15:27;;;;;;;33.17;20.47;;;4.60;92.30;;;;;;5103812;28;20417;-73
2024/03/08 08:17:54;;;;;;;26.87;16.97;;;4.70;91.90;;;;;;5091027;28;20184;-72
2024/03/08 08:20:19;;;;;;;29.43;19.70;;;4.70;91.80;;;;;;5106165;28;20433;-70
2024/03/08 08:22:45;;;;;;;27.87;18.73;;;4.80;91.30;;;;;;5087671;28;20251;-72
2024/03/08 08:25:15;;;;;;;26.00;17.93;;;5.00;91.20;;;;;;5107071;28;20176;-71
2024/03/08 08:27:42;;;;;;;29.00;22.92;;;5.10;91.00;;;;;;5114372;28;20509;-74
2024/03/08 08:30:09;;;;;;;24.53;18.43;;;5.20;90.40;;;;;;5109903;28;20180;-73
2024/03/08 08:32:46;;;;;;;27.70;18.30;;;5.20;90.10;;;;;;5114448;28;20441;-74
2024/03/08 08:35:12;;;;;;;27.10;18.10;;;5.30;90.20;;;;;;5086061;28;20438;-73
2024/03/08 08:37:41;;;;;;;27.43;18.07;;;5.30;89.90;;;;;;5095439;28;20531;-71
2024/03/08 08:40:14;;;;;;;24.70;17.33;;;5.50;89.40;;;;;;5121443;28;20471;-71
2024/03/08 08:42:40;;;;;;;30.23;17.97;;;5.50;88.50;;;;;;5103500;28;20511;-72
2024/03/08 08:45:09;;;;;;;27.17;17.33;;;5.50;87.60;;;;;;5110516;28;20755;-72
2024/03/08 08:47:37;;;;;;;27.03;18.90;;;5.60;87.20;;;;;;5108212;28;20450;-75
2024/03/08 08:50:04;;;;;;;28.00;19.03;;;5.80;86.70;;;;;;5092239;28;20422;-73
2024/03/08 08:52:31;;;;;;;25.70;17.80;;;5.70;86.60;;;;;;5113257;28;20483;-71
2024/03/08 08:54:57;;;;;;;26.07;18.17;;;5.90;85.50;;;;;;5110327;28;20444;-71
2024/03/08 08:57:23;;;;;;;25.10;16.83;;;6.00;85.10;;;;;;5110881;28;20444;-72
2024/03/08 08:59:48;;;;;;;23.40;16.53;;;6.00;84.50;;;;;;5107973;28;20710;-70
2024/03/08 09:02:16;;;;;;;22.63;16.43;;;6.20;83.90;;;;;;5112637;28;20264;-73
2024/03/08 09:04:43;;;;;;;28.73;17.10;;;6.20;83.30;;;;;;5113540;28;20229;-72
2024/03/08 09:07:09;;;;;;;25.60;17.73;;;6.20;82.80;;;;;;5112820;28;20490;-74
2024/03/08 09:09:36;;;;;;;22.03;16.07;;;6.30;82.70;;;;;;5117099;28;20461;-72
2024/03/08 09:12:01;;;;;;;28.52;18.33;;;6.30;82.10;;;;;;5115802;28;20422;-70
2024/03/08 09:14:27;;;;;;;24.57;16.53;;;6.40;80.60;;;;;;5103757;28;20234;-74
2024/03/08 09:16:52;;;;;;;29.10;15.43;;;6.50;81.60;;;;;;5108290;28;20212;-74
2024/03/08 09:19:19;;;;;;;24.53;16.37;;;6.60;80.40;;;;;;5104685;28;20260;-71
2024/03/08 09:21:45;;;;;;;24.43;16.63;;;6.60;79.80;;;;;;5105414;28;20261;-71
2024/03/08 09:24:12;;;;;;;21.10;16.37;;;6.70;80.10;;;;;;5114449;28;20486;-71
2024/03/08 09:26:38;;;;;;;24.63;16.13;;;6.80;79.70;;;;;;5104511;28;20797;-73
2024/03/08 09:29:05;;;;;;;23.23;15.43;;;6.90;79.30;;;;;;5090432;28;20470;-71
2024/03/08 09:31:30;;;;;;;24.27;16.43;;;7.00;77.00;;;;;;5105038;28;20187;-71
2024/03/08 09:33:56;;;;;;;24.83;16.17;;;7.10;76.20;;;;;;5105949;28;20719;-73
2024/03/08 09:36:22;;;;;;;24.97;15.90;;;7.10;76.00;;;;;;5107569;28;20216;-72
2024/03/08 09:38:50;;;;;;;23.53;15.13;;;7.30;75.20;;;;;;5112014;28;20447;-73
2024/03/08 09:41:15;;;;;;;25.00;14.00;;;7.30;74.80;;;;;;5119642;28;20503;-72
2024/03/08 09:43:42;;;;;;;19.93;14.60;;;7.30;74.70;;;;;;5110238;28;20494;-74
2024/03/08 09:46:08;;;;;;;19.10;13.60;;;7.30;74.10;;;;;;5099798;28;20434;-71
2024/03/08 09:48:35;;;;;;;17.70;13.33;;;7.40;74.00;;;;;;5111738;28;20500;-70
2024/03/08 09:51:00;;;;;;;22.27;15.20;;;7.50;73.00;;;;;;5094373;28;20415;-72
2024/03/08 09:53:26;;;;;;;21.00;13.53;;;7.60;72.30;;;;;;5100058;28;20448;-71
2024/03/08 09:55:52;;;;;;;19.47;13.30;;;7.70;71.20;;;;;;5096715;28;20656;-73
2024/03/08 10:00:58;;;;;;;21.43;13.43;;;7.80;71.20;;;;;;5098561;28;20547;-72
2024/03/08 10:03:27;;;;;;;17.53;12.53;;;7.90;70.80;;;;;;5101899;28;20434;-70
2024/03/08 10:05:56;;;;;;;19.97;13.60;;;8.00;70.50;;;;;;5121442;28;20200;-75
2024/03/08 10:08:23;;;;;;;18.80;12.60;;;8.00;69.70;;;;;;5110196;28;20411;-74
2024/03/08 10:10:51;;;;;;;20.93;12.80;;;8.20;68.70;;;;;;5106891;28;20460;-72
2024/03/08 10:13:19;;;;;;;17.80;13.50;;;8.20;68.10;;;;;;5105727;28;20419;-74
2024/03/08 10:15:45;;;;;;;15.40;11.27;;;8.30;67.90;;;;;;5107029;28;20459;-72
2024/03/08 10:18:10;;;;;;;15.37;11.23;;;8.30;67.00;;;;;;5091146;28;20447;-72
2024/03/08 10:20:36;;;;;;;16.17;10.70;;;8.50;66.30;;;;;;5086266;28;20177;-74
2024/03/08 10:23:04;;;;;;;18.50;12.53;;;8.50;65.60;;;;;;5108106;28;20185;-73
2024/03/08 10:25:31;;;;;;;14.70;10.13;;;8.70;65.00;;;;;;5108450;28;20204;-74
2024/03/08 10:27:56;;;;;;;15.60;9.50;;;8.70;64.50;;;;;;5102691;28;20382;-77
2024/03/08 10:30:23;;;;;;;13.27;9.50;;;8.80;62.90;;;;;;5114909;28;20397;-74
2024/03/08 10:32:49;;;;;;;13.83;10.23;;;8.80;63.60;;;;;;5118092;28;20199;-72
2024/03/08 10:35:16;;;;;;;11.63;9.50;;;8.90;62.80;;;;;;5100671;28;20427;-73
2024/03/08 10:37:47;;;;;;;12.27;8.83;;;8.90;62.30;;;;;;5116385;28;20503;-71
2024/03/08 10:40:17;;;;;;;13.27;9.60;;;9.00;59.70;;;;;;5115605;28;20514;-74
2024/03/08 10:42:56;;;;;;;13.13;9.67;;;9.20;59.50;;;;;;5088472;28;20474;-73
2024/03/08 10:45:25;;;;;;;12.10;9.43;;;9.20;58.50;;;;;;5093364;28;20471;-71
2024/03/08 10:48:02;;;;;;;16.33;9.97;;;9.20;58.10;;;;;;5118051;28;20447;-73
2024/03/08 10:50:29;;;;;;;12.47;9.27;;;9.30;58.10;;;;;;5121551;28;20410;-76
2024/03/08 10:52:57;;;;;;;15.30;9.67;;;9.20;58.30;;;;;;5087981;28;20805;-75
2024/03/08 10:55:26;;;;;;;11.40;8.60;;;9.30;58.70;;;;;;5112630;28;20418;-74
2024/03/08 10:57:53;;;;;;;12.43;9.00;;;9.40;58.80;;;;;;5095264;28;20403;-72
2024/03/08 11:00:25;;;;;;;15.77;10.00;;;9.40;57.20;;;;;;5120887;28;20498;-76
2024/03/08 11:02:51;;;;;;;14.87;8.97;;;9.50;56.40;;;;;;5130804;28;20434;-75
2024/03/08 11:05:38;;;;;;;13.00;10.00;;;9.50;56.20;;;;;;5103020;28;20421;-73
2024/03/08 11:08:24;;;;;;;13.90;9.70;;;9.40;55.90;;;;;;5100504;28;20206;-76
2024/03/08 11:10:55;;;;;;;14.98;10.52;;;9.50;56.60;;;;;;5086346;28;20435;-75
2024/03/08 11:13:45;;;;;;;14.00;9.27;;;9.50;55.90;;;;;;5102520;28;20221;-71
2024/03/08 11:16:12;;;;;;;11.90;9.27;;;9.50;56.10;;;;;;5115062;28;20466;-75
2024/03/08 11:18:38;;;;;;;12.73;9.67;;;9.60;56.50;;;;;;5117142;28;20717;-75
2024/03/08 11:21:14;;;;;;;11.23;8.90;;;9.60;56.00;;;;;;5108209;28;20453;-73
2024/03/08 11:23:40;;;;;;;12.27;9.60;;;9.60;56.40;;;;;;5101943;28;20199;-76
2024/03/08 11:26:20;;;;;;;12.43;9.67;;;9.80;55.50;;;;;;5114667;28;20442;-72
2024/03/08 11:28:46;;;;;;;13.70;10.00;;;9.80;55.30;;;;;;5100244;28;20410;-75
2024/03/08 11:31:11;;;;;;;13.10;9.70;;;9.70;55.20;;;;;;5107689;28;20429;-76
2024/03/08 11:33:43;;;;;;;12.43;9.50;;;9.70;55.10;;;;;;5099843;28;20422;-74
2024/03/08 11:36:21;;;;;;;14.03;10.00;;;9.70;55.00;;;;;;5077824;28;20232;-76
2024/03/08 11:38:48;;;;;;;14.10;10.00;;;9.80;54.60;;;;;;5102037;28;20486;-72
2024/03/08 11:41:21;;;;;;;14.03;10.63;;;9.80;54.60;;;;;;5117898;28;20461;-71
2024/03/08 11:43:47;;;;;;;14.63;10.20;;;9.90;55.10;;;;;;5114759;28;20437;-72
2024/03/08 11:46:14;;;;;;;15.30;10.00;;;9.80;55.50;;;;;;5109835;28;20419;-73
2024/03/08 11:48:43;;;;;;;17.90;10.37;;;9.80;55.00;;;;;;5095495;28;20461;-74
2024/03/08 11:51:11;;;;;;;14.90;10.20;;;9.90;55.10;;;;;;5106379;28;20461;-76
2024/03/08 11:53:38;;;;;;;13.63;10.27;;;9.90;55.00;;;;;;5107443;28;20482;-75
2024/03/08 11:56:12;;;;;;;14.33;10.10;;;9.90;55.00;;;;;;5110094;28;20482;-76
2024/03/08 11:58:38;;;;;;;12.33;9.97;;;10.00;54.00;;;;;;5093574;28;20827;-73
2024/03/08 12:01:12;;;;;;;12.00;9.67;;;9.90;55.00;;;;;;5093346;28;20966;-77
2024/03/08 12:03:42;;;;;;;13.57;10.10;;;10.00;54.00;;;;;;5086230;28;20431;-72
2024/03/08 12:06:09;;;;;;;12.30;9.43;;;10.10;53.80;;;;;;5080567;28;20451;-74
2024/03/08 12:08:35;;;;;;;17.40;10.40;;;10.10;53.40;;;;;;5088400;28;20430;-74
2024/03/08 12:11:03;;;;;;;13.83;10.50;;;10.20;53.00;;;;;;5091490;28;20426;-71
2024/03/08 12:13:33;;;;;;;11.83;9.73;;;10.10;52.90;;;;;;5102103;28;20465;-75
2024/03/08 12:16:00;;;;;;;14.33;10.77;;;10.10;53.50;;;;;;5087374;28;20458;-75
2024/03/08 12:18:28;;;;;;;13.93;10.70;;;10.20;52.80;;;;;;5090644;28;20434;-74
2024/03/08 12:21:07;;;;;;;13.07;9.77;;;10.10;52.80;;;;;;5084428;28;20503;-73
2024/03/08 12:23:33;;;;;;;12.90;8.50;;;10.30;53.00;;;;;;5103077;28;20219;-75
2024/03/08 12:26:16;;;;;;;12.30;8.53;;;10.20;52.10;;;;;;5105691;28;20491;-75
2024/03/08 12:28:46;;;;;;;12.63;9.50;;;10.20;52.10;;;;;;5099492;28;20414;-72
2024/03/08 12:31:20;;;;;;;12.53;9.57;;;10.30;51.60;;;;;;5106503;28;20412;-76
2024/03/08 12:33:50;;;;;;;12.40;9.80;;;10.20;51.50;;;;;;5112680;28;20868;-77
2024/03/08 12:36:17;;;;;;;12.20;10.00;;;10.30;51.40;;;;;;5089876;28;20525;-75
2024/03/08 12:38:49;;;;;;;12.90;9.33;;;10.30;51.60;;;;;;5101558;28;20409;-71
2024/03/08 12:41:17;;;;;;;12.30;9.60;;;10.30;52.20;;;;;;5104329;28;20463;-73